createdAt,value
2022-08-19T00:00:01.965Z,21.00
2022-08-19T00:01:02.004Z,21.00
2022-08-19T00:02:02.700Z,22.30
2022-08-19T00:03:02.577Z,22.30
2022-08-19T00:04:03.217Z,22.30
2022-08-19T00:05:03.073Z,22.30
2022-08-19T00:06:03.069Z,22.30
2022-08-19T00:07:02.488Z,21.90
2022-08-19T00:08:02.477Z,21.90
2022-08-19T00:09:02.412Z,21.90
2022-08-19T00:10:02.539Z,21.90
2022-08-19T00:11:02.471Z,21.90
2022-08-19T00:12:02.807Z,22.00
2022-08-19T00:13:02.527Z,22.00
2022-08-19T00:14:02.856Z,22.00
2022-08-19T00:15:02.784Z,22.00
2022-08-19T00:16:02.820Z,22.00
2022-08-19T00:17:02.770Z,22.70
2022-08-19T00:18:02.751Z,22.70
2022-08-19T00:19:02.973Z,22.70
2022-08-19T00:20:02.929Z,22.70
2022-08-19T00:21:02.816Z,22.70
2022-08-19T00:22:02.510Z,22.30
2022-08-19T00:23:02.486Z,22.30
2022-08-19T00:24:02.549Z,22.30
2022-08-19T00:25:02.420Z,22.30
2022-08-19T00:26:02.661Z,22.30
2022-08-19T00:27:04.924Z,24.50
2022-08-19T00:28:02.905Z,24.50
2022-08-19T00:29:02.707Z,24.50
2022-08-19T00:30:02.765Z,24.50
2022-08-19T00:31:03.128Z,24.50
2022-08-19T00:32:02.876Z,21.40
2022-08-19T00:33:02.869Z,21.40
2022-08-19T00:34:02.818Z,21.40
2022-08-19T00:35:02.808Z,21.40
2022-08-19T00:36:02.759Z,21.40
2022-08-19T00:37:02.570Z,21.40
2022-08-19T00:38:02.545Z,21.40
2022-08-19T00:39:02.681Z,21.40
2022-08-19T00:40:02.651Z,21.40
2022-08-19T00:41:02.719Z,21.40
2022-08-19T00:42:02.575Z,22.50
2022-08-19T00:43:02.564Z,22.50
2022-08-19T00:44:02.548Z,22.50
2022-08-19T00:45:02.509Z,22.50
2022-08-19T00:46:02.501Z,22.50
2022-08-19T00:47:03.216Z,21.50
2022-08-19T00:48:03.459Z,21.50
2022-08-19T00:49:02.955Z,21.50
2022-08-19T00:50:03.606Z,21.50
2022-08-19T00:51:03.232Z,21.50
2022-08-19T00:52:03.235Z,19.50
2022-08-19T00:53:03.249Z,19.50
2022-08-19T00:54:03.241Z,19.50
2022-08-19T00:55:03.224Z,19.50
2022-08-19T00:56:03.185Z,19.50
2022-08-19T00:57:02.915Z,20.90
2022-08-19T00:58:02.889Z,20.90
2022-08-19T00:59:02.732Z,20.90
2022-08-19T01:00:03.233Z,20.90
2022-08-19T01:01:02.809Z,20.90
2022-08-19T01:02:02.634Z,23.80
2022-08-19T01:03:02.672Z,23.80
2022-08-19T01:04:02.194Z,23.80
2022-08-19T01:05:02.824Z,23.80
2022-08-19T01:06:02.237Z,23.80
2022-08-19T01:07:01.863Z,22.20
2022-08-19T01:08:01.911Z,22.20
2022-08-19T01:09:02.022Z,22.20
2022-08-19T01:10:01.698Z,22.20
2022-08-19T01:11:01.713Z,22.20
2022-08-19T01:12:02.420Z,22.10
2022-08-19T01:13:02.300Z,22.10
2022-08-19T01:14:02.205Z,22.10
2022-08-19T01:15:02.557Z,22.10
2022-08-19T01:16:02.591Z,22.10
2022-08-19T01:17:01.735Z,23.30
2022-08-19T01:18:01.701Z,23.30
2022-08-19T01:19:01.678Z,23.30
2022-08-19T01:20:01.649Z,23.30
2022-08-19T01:21:02.306Z,23.30
2022-08-19T01:22:13.052Z,23.20
2022-08-19T01:23:02.296Z,23.20
2022-08-19T01:24:02.783Z,23.20
2022-08-19T01:25:02.491Z,23.20
2022-08-19T01:26:02.516Z,23.20
2022-08-19T01:27:02.237Z,22.80
2022-08-19T01:28:11.197Z,22.80
2022-08-19T01:29:02.238Z,22.80
2022-08-19T01:30:02.203Z,22.80
2022-08-19T01:31:07.898Z,22.80
2022-08-19T01:32:02.870Z,21.60
2022-08-19T01:33:02.425Z,21.60
2022-08-19T01:34:02.806Z,21.60
2022-08-19T01:35:02.752Z,21.60
2022-08-19T01:36:02.423Z,21.60
2022-08-19T01:37:02.547Z,22.50
2022-08-19T01:38:02.564Z,22.50
2022-08-19T01:39:02.157Z,22.50
2022-08-19T01:40:06.339Z,22.50
2022-08-19T01:41:02.470Z,22.50
2022-08-19T01:42:03.168Z,23.10
2022-08-19T01:43:03.161Z,23.10
2022-08-19T01:44:13.303Z,23.10
2022-08-19T01:45:02.999Z,23.10
2022-08-19T01:46:02.685Z,23.10
2022-08-19T01:47:01.823Z,25.40
2022-08-19T01:48:02.658Z,25.40
2022-08-19T01:49:02.412Z,25.40
2022-08-19T01:50:01.876Z,25.40
2022-08-19T01:51:02.369Z,25.40
2022-08-19T01:52:03.116Z,24.10
2022-08-19T01:53:06.852Z,24.10
2022-08-19T01:54:02.960Z,24.10
2022-08-19T01:55:03.097Z,24.10
2022-08-19T01:56:02.953Z,24.10
2022-08-19T01:57:02.036Z,23.10
2022-08-19T01:58:02.023Z,23.10
2022-08-19T01:59:02.075Z,23.10
2022-08-19T02:00:02.651Z,23.10
2022-08-19T02:01:02.506Z,23.10
2022-08-19T02:02:02.116Z,22.80
2022-08-19T02:03:01.770Z,22.80
2022-08-19T02:04:01.828Z,22.80
2022-08-19T02:05:01.849Z,22.80
2022-08-19T02:06:01.734Z,22.80
2022-08-19T02:07:02.316Z,23.10
2022-08-19T02:08:01.892Z,23.10
2022-08-19T02:09:01.878Z,23.10
2022-08-19T02:10:04.558Z,23.10
2022-08-19T02:11:02.076Z,23.10
2022-08-19T02:12:02.030Z,22.60
2022-08-19T02:13:02.650Z,22.60
2022-08-19T02:14:02.664Z,22.60
2022-08-19T02:15:02.147Z,22.60
2022-08-19T02:16:04.478Z,22.60
2022-08-19T02:17:02.052Z,21.10
2022-08-19T02:18:02.200Z,21.10
2022-08-19T02:19:02.183Z,21.10
2022-08-19T02:20:02.118Z,21.10
2022-08-19T02:21:02.088Z,21.10
2022-08-19T02:22:02.643Z,23.20
2022-08-19T02:23:02.658Z,23.20
2022-08-19T02:24:02.654Z,23.20
2022-08-19T02:25:02.422Z,23.20
2022-08-19T02:26:02.418Z,23.20
2022-08-19T02:27:02.089Z,23.10
2022-08-19T02:28:02.391Z,23.10
2022-08-19T02:29:02.416Z,23.10
2022-08-19T02:30:02.394Z,23.10
2022-08-19T02:31:02.368Z,23.10
2022-08-19T02:32:02.806Z,25.20
2022-08-19T02:33:02.826Z,25.20
2022-08-19T02:34:02.542Z,25.20
2022-08-19T02:35:02.520Z,25.20
2022-08-19T02:36:02.541Z,25.20
2022-08-19T02:37:03.866Z,22.30
2022-08-19T02:38:02.441Z,22.30
2022-08-19T02:39:02.939Z,22.30
2022-08-19T02:40:02.947Z,22.30
2022-08-19T02:41:02.894Z,22.30
2022-08-19T02:42:01.946Z,20.90
2022-08-19T02:43:02.063Z,20.90
2022-08-19T02:44:26.394Z,20.90
2022-08-19T02:45:01.927Z,20.90
2022-08-19T02:46:01.893Z,20.90
2022-08-19T02:47:02.764Z,23.90
2022-08-19T02:48:03.428Z,23.90
2022-08-19T02:49:02.809Z,23.90
2022-08-19T02:50:02.607Z,23.90
2022-08-19T02:51:02.574Z,23.90
2022-08-19T02:52:02.038Z,22.20
2022-08-19T02:53:02.412Z,22.20
2022-08-19T02:54:02.219Z,22.20
2022-08-19T02:55:02.228Z,22.20
2022-08-19T02:56:02.210Z,22.20
2022-08-19T02:57:02.193Z,20.90
2022-08-19T02:58:02.062Z,20.90
2022-08-19T02:59:02.490Z,20.90
2022-08-19T03:00:02.106Z,20.90
2022-08-19T03:01:02.460Z,20.90
2022-08-19T03:02:02.485Z,23.60
2022-08-19T03:03:02.647Z,23.60
2022-08-19T03:04:02.721Z,23.60
2022-08-19T03:05:02.647Z,23.60
2022-08-19T03:06:02.671Z,23.60
2022-08-19T03:07:07.163Z,21.10
2022-08-19T03:08:02.651Z,21.10
2022-08-19T03:09:02.622Z,21.10
2022-08-19T03:10:02.608Z,21.10
2022-08-19T03:11:02.822Z,21.10
2022-08-19T03:12:02.814Z,21.30
2022-08-19T03:13:02.804Z,21.30
2022-08-19T03:14:02.864Z,21.30
2022-08-19T03:15:02.849Z,21.30
2022-08-19T03:16:02.976Z,21.30
2022-08-19T03:17:02.070Z,19.70
2022-08-19T03:18:02.296Z,19.70
2022-08-19T03:19:01.951Z,19.70
2022-08-19T03:20:02.003Z,19.70
2022-08-19T03:21:02.358Z,19.70
2022-08-19T03:22:02.361Z,20.90
2022-08-19T03:23:02.315Z,20.90
2022-08-19T03:24:02.339Z,20.90
2022-08-19T03:25:02.115Z,20.90
2022-08-19T03:26:16.082Z,20.90
2022-08-19T03:27:02.422Z,22.10
2022-08-19T03:28:02.404Z,22.10
2022-08-19T03:29:02.345Z,22.10
2022-08-19T03:30:02.436Z,22.10
2022-08-19T03:31:02.820Z,22.10
2022-08-19T03:32:04.631Z,21.50
2022-08-19T03:33:02.476Z,21.50
2022-08-19T03:34:02.451Z,21.50
2022-08-19T03:35:02.514Z,21.50
2022-08-19T03:36:02.496Z,21.50
2022-08-19T03:37:02.896Z,22.60
2022-08-19T03:38:02.891Z,22.60
2022-08-19T03:39:02.898Z,22.60
2022-08-19T03:40:03.009Z,22.60
2022-08-19T03:41:02.932Z,22.60
2022-08-19T03:42:29.285Z,26.60
2022-08-19T03:43:03.496Z,26.60
2022-08-19T03:44:03.010Z,26.60
2022-08-19T03:45:03.094Z,26.60
2022-08-19T03:46:03.065Z,26.60
2022-08-19T03:47:03.396Z,21.40
2022-08-19T03:48:03.105Z,21.40
2022-08-19T03:49:03.055Z,21.40
2022-08-19T03:50:03.337Z,21.40
2022-08-19T03:51:02.844Z,21.40
2022-08-19T03:52:02.564Z,22.20
2022-08-19T03:53:02.761Z,22.20
2022-08-19T03:54:02.704Z,22.20
2022-08-19T03:55:02.555Z,22.20
2022-08-19T03:56:02.537Z,22.20
2022-08-19T03:57:03.203Z,20.30
2022-08-19T03:58:03.575Z,20.30
2022-08-19T03:59:03.263Z,20.30
2022-08-19T04:00:06.846Z,20.30
2022-08-19T04:01:03.536Z,20.30
2022-08-19T04:02:02.550Z,19.30
2022-08-19T04:03:02.721Z,19.30
2022-08-19T04:04:03.348Z,19.30
2022-08-19T04:05:02.611Z,19.30
2022-08-19T04:06:02.699Z,19.30
2022-08-19T04:07:02.396Z,20.30
2022-08-19T04:08:02.446Z,20.30
2022-08-19T04:09:02.316Z,20.30
2022-08-19T04:10:02.988Z,20.30
2022-08-19T04:11:03.010Z,20.30
2022-08-19T04:12:02.768Z,21.30
2022-08-19T04:13:02.825Z,21.30
2022-08-19T04:14:02.796Z,21.30
2022-08-19T04:15:02.927Z,21.30
2022-08-19T04:16:02.749Z,21.30
2022-08-19T04:17:02.503Z,20.60
2022-08-19T04:18:02.568Z,20.60
2022-08-19T04:19:02.048Z,20.60
2022-08-19T04:20:02.320Z,20.60
2022-08-19T04:21:02.390Z,20.60
2022-08-19T04:22:03.109Z,19.80
2022-08-19T04:23:02.764Z,19.80
2022-08-19T04:24:03.947Z,19.80
2022-08-19T04:25:03.076Z,19.80
2022-08-19T04:26:03.147Z,19.80
2022-08-19T04:27:03.397Z,21.10
2022-08-19T04:28:03.200Z,21.10
2022-08-19T04:29:03.287Z,21.10
2022-08-19T04:30:03.303Z,21.10
2022-08-19T04:31:03.325Z,21.10
2022-08-19T04:32:08.533Z,21.60
2022-08-19T04:33:02.902Z,21.60
2022-08-19T04:34:02.947Z,21.60
2022-08-19T04:35:16.757Z,21.60
2022-08-19T04:36:03.100Z,21.60
2022-08-19T04:37:02.897Z,21.10
2022-08-19T04:38:02.915Z,21.10
2022-08-19T04:39:02.987Z,21.10
2022-08-19T04:40:02.878Z,21.10
2022-08-19T04:41:02.822Z,21.10
2022-08-19T04:42:03.600Z,22.20
2022-08-19T04:43:03.255Z,22.20
2022-08-19T04:44:04.535Z,22.20
2022-08-19T04:45:03.409Z,22.20
2022-08-19T04:46:03.389Z,22.20
2022-08-19T04:47:03.274Z,21.30
2022-08-19T04:48:27.386Z,21.30
2022-08-19T04:49:13.248Z,21.30
2022-08-19T04:50:02.989Z,21.30
2022-08-19T04:51:03.040Z,21.30
2022-08-19T04:52:02.844Z,20.70
2022-08-19T04:53:02.510Z,20.70
2022-08-19T04:54:02.343Z,20.70
2022-08-19T04:55:02.567Z,20.70
2022-08-19T04:56:02.668Z,20.70
2022-08-19T04:57:02.793Z,21.70
2022-08-19T04:58:03.010Z,21.70
2022-08-19T04:59:03.105Z,21.70
2022-08-19T05:00:03.068Z,21.70
2022-08-19T05:01:03.228Z,21.70
2022-08-19T05:02:02.629Z,22.20
2022-08-19T05:03:02.880Z,22.20
2022-08-19T05:04:02.620Z,22.20
2022-08-19T05:05:02.735Z,22.20
2022-08-19T05:06:02.915Z,22.20
2022-08-19T05:07:03.025Z,20.50
2022-08-19T05:08:03.209Z,20.50
2022-08-19T05:09:03.248Z,20.50
2022-08-19T05:10:03.374Z,20.50
2022-08-19T05:11:03.458Z,20.50
2022-08-19T05:12:02.606Z,21.20
2022-08-19T05:13:02.856Z,21.20
2022-08-19T05:14:02.554Z,21.20
2022-08-19T05:15:02.863Z,21.20
2022-08-19T05:16:02.584Z,21.20
2022-08-19T05:17:25.988Z,23.40
2022-08-19T05:18:02.803Z,23.40
2022-08-19T05:19:02.750Z,23.40
2022-08-19T05:20:02.730Z,23.40
2022-08-19T05:21:02.957Z,23.40
2022-08-19T05:22:03.217Z,23.20
2022-08-19T05:23:03.502Z,23.20
2022-08-19T05:24:03.179Z,23.20
2022-08-19T05:25:12.592Z,23.20
2022-08-19T05:26:03.502Z,23.20
2022-08-19T05:27:02.680Z,23.40
2022-08-19T05:28:02.823Z,23.40
2022-08-19T05:29:03.053Z,23.40
2022-08-19T05:30:02.651Z,23.40
2022-08-19T05:31:02.880Z,23.40
2022-08-19T05:32:03.092Z,22.10
2022-08-19T05:33:03.414Z,22.10
2022-08-19T05:34:03.498Z,22.10
2022-08-19T05:35:03.376Z,22.10
2022-08-19T05:36:03.360Z,22.10
2022-08-19T05:37:03.483Z,19.60
2022-08-19T05:38:03.844Z,19.60
2022-08-19T05:39:03.875Z,19.60
2022-08-19T05:40:03.621Z,19.60
2022-08-19T05:41:03.953Z,19.60
2022-08-19T05:42:03.209Z,24.30
2022-08-19T05:43:03.425Z,24.30
2022-08-19T05:44:03.481Z,24.30
2022-08-19T05:45:03.527Z,24.30
2022-08-19T05:46:03.865Z,24.30
2022-08-19T05:47:03.190Z,22.00
2022-08-19T05:48:03.112Z,22.00
2022-08-19T05:49:03.246Z,22.00
2022-08-19T05:50:05.121Z,22.00
2022-08-19T05:51:02.665Z,22.00
2022-08-19T05:52:02.923Z,25.10
2022-08-19T05:53:03.093Z,25.10
2022-08-19T05:54:02.814Z,25.10
2022-08-19T05:55:02.980Z,25.10
2022-08-19T05:56:03.115Z,25.10
2022-08-19T05:57:03.244Z,27.10
2022-08-19T05:58:03.068Z,27.10
2022-08-19T05:59:03.205Z,27.10
2022-08-19T06:00:03.464Z,27.10
2022-08-19T06:01:03.043Z,27.10
2022-08-19T06:02:02.991Z,27.10
2022-08-19T06:03:03.232Z,27.10
2022-08-19T06:04:03.331Z,27.10
2022-08-19T06:05:03.006Z,27.10
2022-08-19T06:06:02.791Z,27.10
2022-08-19T06:07:12.106Z,23.10
2022-08-19T06:08:02.858Z,23.10
2022-08-19T06:09:02.998Z,23.10
2022-08-19T06:10:02.852Z,23.10
2022-08-19T06:11:02.911Z,23.10
2022-08-19T06:12:03.027Z,27.10
2022-08-19T06:13:03.164Z,27.10
2022-08-19T06:14:02.811Z,27.10
2022-08-19T06:15:02.946Z,27.10
2022-08-19T06:16:03.061Z,27.10
2022-08-19T06:17:06.835Z,26.80
2022-08-19T06:18:03.395Z,26.80
2022-08-19T06:19:03.332Z,26.80
2022-08-19T06:20:03.471Z,26.80
2022-08-19T06:21:03.456Z,26.80
2022-08-19T06:22:02.776Z,24.90
2022-08-19T06:23:02.953Z,24.90
2022-08-19T06:24:02.862Z,24.90
2022-08-19T06:25:02.306Z,24.90
2022-08-19T06:26:02.429Z,24.90
2022-08-19T06:27:03.309Z,24.70
2022-08-19T06:28:18.653Z,24.70
2022-08-19T06:29:03.104Z,24.70
2022-08-19T06:30:03.243Z,24.70
2022-08-19T06:31:03.051Z,24.70
2022-08-19T06:32:02.915Z,23.90
2022-08-19T06:33:03.034Z,23.90
2022-08-19T06:34:02.498Z,23.90
2022-08-19T06:35:02.643Z,23.90
2022-08-19T06:36:03.078Z,23.90
2022-08-19T06:37:03.002Z,30.10
2022-08-19T06:38:03.103Z,30.10
2022-08-19T06:39:03.180Z,30.10
2022-08-19T06:40:03.089Z,30.10
2022-08-19T06:41:02.670Z,30.10
2022-08-19T06:42:03.491Z,26.00
2022-08-19T06:43:03.613Z,26.00
2022-08-19T06:44:03.476Z,26.00
2022-08-19T06:45:03.333Z,26.00
2022-08-19T06:46:03.139Z,26.00
2022-08-19T06:47:03.044Z,31.60
2022-08-19T06:48:02.971Z,31.60
2022-08-19T06:49:02.887Z,31.60
2022-08-19T06:50:03.507Z,31.60
2022-08-19T06:51:02.896Z,31.60
2022-08-19T06:52:03.109Z,31.50
2022-08-19T06:53:04.715Z,31.50
2022-08-19T06:54:02.614Z,31.50
2022-08-19T06:55:06.186Z,31.50
2022-08-19T06:56:02.637Z,31.50
2022-08-19T06:57:03.511Z,35.30
2022-08-19T06:58:03.691Z,35.30
2022-08-19T06:59:03.185Z,35.30
2022-08-19T07:00:03.168Z,35.30
2022-08-19T07:01:05.723Z,35.30
2022-08-19T07:02:03.178Z,35.30
2022-08-19T07:03:05.958Z,35.30
2022-08-19T07:04:03.330Z,35.30
2022-08-19T07:05:03.040Z,35.30
2022-08-19T07:06:03.326Z,35.30
2022-08-19T07:07:19.790Z,39.70
2022-08-19T07:08:05.000Z,39.70
2022-08-19T07:09:02.676Z,39.70
2022-08-19T07:10:06.123Z,39.70
2022-08-19T07:11:02.319Z,39.70
2022-08-19T07:12:03.342Z,50.80
2022-08-19T07:13:03.272Z,50.80
2022-08-19T07:14:03.262Z,50.80
2022-08-19T07:15:02.918Z,50.80
2022-08-19T07:16:05.750Z,50.80
2022-08-19T07:17:02.088Z,45.50
2022-08-19T07:18:02.348Z,45.50
2022-08-19T07:19:11.544Z,45.50
2022-08-19T07:20:06.810Z,45.50
2022-08-19T07:21:02.498Z,45.50
2022-08-19T07:22:02.407Z,50.10
2022-08-19T07:23:02.408Z,50.10
2022-08-19T07:24:04.152Z,50.10
2022-08-19T07:25:02.226Z,50.10
2022-08-19T07:27:02.884Z,59.60
2022-08-19T07:28:02.886Z,59.60
2022-08-19T07:29:02.321Z,59.60
2022-08-19T07:30:02.296Z,59.60
2022-08-19T07:31:02.353Z,59.60
2022-08-19T07:32:03.212Z,45.50
2022-08-19T07:33:03.359Z,45.50
2022-08-19T07:34:02.612Z,45.50
2022-08-19T07:35:03.116Z,45.50
2022-08-19T07:36:02.948Z,45.50
2022-08-19T07:37:02.477Z,45.20
2022-08-19T07:38:02.774Z,45.20
2022-08-19T07:39:02.406Z,45.20
2022-08-19T07:40:02.769Z,45.20
2022-08-19T07:41:02.292Z,45.20
2022-08-19T07:42:02.910Z,48.30
2022-08-19T07:43:03.113Z,48.30
2022-08-19T07:44:03.077Z,48.30
2022-08-19T07:45:03.371Z,48.30
2022-08-19T07:46:03.029Z,48.30
2022-08-19T07:47:03.026Z,46.80
2022-08-19T07:48:03.944Z,46.80
2022-08-19T07:49:03.206Z,46.80
2022-08-19T07:50:03.130Z,46.80
2022-08-19T07:51:03.401Z,46.80
2022-08-19T07:52:02.331Z,40.10
2022-08-19T07:53:02.537Z,40.10
2022-08-19T07:54:02.627Z,40.10
2022-08-19T07:55:02.832Z,40.10
2022-08-19T07:56:02.742Z,40.10
2022-08-19T07:57:02.642Z,42.10
2022-08-19T07:58:03.168Z,42.10
2022-08-19T07:59:03.016Z,42.10
2022-08-19T08:00:02.796Z,42.10
2022-08-19T08:01:03.116Z,42.10
2022-08-19T08:02:02.410Z,42.20
2022-08-19T08:03:01.928Z,42.20
2022-08-19T08:04:02.045Z,42.20
2022-08-19T08:05:02.369Z,42.20
2022-08-19T08:06:01.847Z,42.20
2022-08-19T08:07:02.512Z,40.30
2022-08-19T08:08:02.735Z,40.30
2022-08-19T08:09:02.741Z,40.30
2022-08-19T08:10:03.564Z,40.30
2022-08-19T08:11:02.544Z,40.30
2022-08-19T08:12:04.994Z,43.80
2022-08-19T08:13:09.538Z,43.80
2022-08-19T08:14:04.513Z,43.80
2022-08-19T08:15:01.759Z,43.80
2022-08-19T08:16:01.847Z,43.80
2022-08-19T08:17:02.146Z,41.80
2022-08-19T08:18:02.286Z,41.80
2022-08-19T08:19:02.098Z,41.80
2022-08-19T08:20:02.239Z,41.80
2022-08-19T08:21:02.476Z,41.80
2022-08-19T08:22:02.549Z,42.60
2022-08-19T08:23:02.624Z,42.60
2022-08-19T08:24:02.914Z,42.60
2022-08-19T08:25:02.471Z,42.60
2022-08-19T08:26:02.800Z,42.60
2022-08-19T08:27:02.286Z,50.00
2022-08-19T08:28:02.242Z,50.00
2022-08-19T08:29:02.564Z,50.00
2022-08-19T08:30:02.991Z,50.00
2022-08-19T08:31:02.393Z,50.00
2022-08-19T08:32:02.764Z,49.10
2022-08-19T08:33:02.837Z,49.10
2022-08-19T08:34:02.705Z,49.10
2022-08-19T08:35:02.924Z,49.10
2022-08-19T08:36:03.980Z,49.10
2022-08-19T08:37:02.415Z,42.10
2022-08-19T08:38:02.576Z,42.10
2022-08-19T08:39:02.674Z,42.10
2022-08-19T08:40:02.360Z,42.10
2022-08-19T08:41:02.554Z,42.10
2022-08-19T08:42:02.605Z,37.20
2022-08-19T08:44:02.549Z,37.20
2022-08-19T08:45:02.851Z,37.20
2022-08-19T08:46:02.970Z,37.20
2022-08-19T08:47:02.939Z,36.60
2022-08-19T08:48:02.924Z,36.60
2022-08-19T08:49:02.906Z,36.60
2022-08-19T08:50:02.809Z,36.60
2022-08-19T08:51:03.049Z,36.60
2022-08-19T08:52:03.139Z,35.30
2022-08-19T08:53:02.913Z,35.30
2022-08-19T08:54:03.530Z,35.30
2022-08-19T08:55:03.129Z,35.30
2022-08-19T08:56:03.458Z,35.30
2022-08-19T08:57:02.367Z,38.70
2022-08-19T08:58:02.896Z,38.70
2022-08-19T08:59:02.076Z,38.70
2022-08-19T09:00:02.502Z,38.70
2022-08-19T09:01:02.202Z,38.70
2022-08-19T09:02:02.804Z,34.30
2022-08-19T09:03:02.957Z,34.30
2022-08-19T09:04:03.883Z,34.30
2022-08-19T09:05:03.140Z,34.30
2022-08-19T09:06:03.037Z,34.30
2022-08-19T09:07:03.394Z,27.50
2022-08-19T09:08:03.596Z,27.50
2022-08-19T09:09:03.631Z,27.50
2022-08-19T09:10:03.452Z,27.50
2022-08-19T09:11:03.497Z,27.50
2022-08-19T09:12:03.414Z,27.40
2022-08-19T09:13:03.748Z,27.40
2022-08-19T09:14:03.269Z,27.40
2022-08-19T09:15:03.424Z,27.40
2022-08-19T09:16:03.533Z,27.40
2022-08-19T09:17:03.210Z,23.30
2022-08-19T09:18:02.906Z,23.30
2022-08-19T09:19:03.307Z,23.30
2022-08-19T09:20:03.127Z,23.30
2022-08-19T09:21:03.355Z,23.30
2022-08-19T09:22:03.497Z,24.60
2022-08-19T09:23:03.749Z,24.60
2022-08-19T09:24:03.635Z,24.60
2022-08-19T09:25:03.627Z,24.60
2022-08-19T09:26:03.800Z,24.60
2022-08-19T09:27:07.980Z,20.40
2022-08-19T09:28:05.695Z,20.40
2022-08-19T09:29:02.925Z,20.40
2022-08-19T09:30:03.105Z,20.40
2022-08-19T09:31:03.356Z,20.40
2022-08-19T09:32:03.654Z,23.10
2022-08-19T09:33:03.679Z,23.10
2022-08-19T09:34:03.286Z,23.10
2022-08-19T09:35:03.599Z,23.10
2022-08-19T09:36:03.598Z,23.10
2022-08-19T09:37:03.776Z,20.50
2022-08-19T09:38:03.632Z,20.50
2022-08-19T09:39:03.549Z,20.50
2022-08-19T09:40:03.687Z,20.50
2022-08-19T09:41:03.631Z,20.50
2022-08-19T09:42:03.833Z,22.80
2022-08-19T09:43:10.012Z,22.80
2022-08-19T09:44:03.847Z,22.80
2022-08-19T09:45:05.035Z,22.80
2022-08-19T09:46:03.693Z,22.80
2022-08-19T09:47:03.406Z,19.40
2022-08-19T09:48:03.217Z,19.40
2022-08-19T09:49:06.331Z,19.40
2022-08-19T09:50:03.364Z,19.40
2022-08-19T09:51:03.579Z,19.40
2022-08-19T09:52:03.440Z,18.10
2022-08-19T09:53:03.482Z,18.10
2022-08-19T09:54:04.515Z,18.10
2022-08-19T09:55:07.092Z,18.10
2022-08-19T09:56:04.101Z,18.10
2022-08-19T09:57:05.112Z,17.00
2022-08-19T09:58:03.750Z,17.00
2022-08-19T09:59:04.092Z,17.00
2022-08-19T10:00:04.129Z,17.00
2022-08-19T10:01:04.349Z,17.00
2022-08-19T10:02:03.598Z,20.90
2022-08-19T10:03:03.482Z,20.90
2022-08-19T10:04:07.544Z,20.90
2022-08-19T10:05:02.885Z,20.90
2022-08-19T10:06:02.950Z,20.90
2022-08-19T10:07:03.365Z,25.20
2022-08-19T10:08:02.895Z,25.20
2022-08-19T10:09:02.886Z,25.20
2022-08-19T10:10:03.024Z,25.20
2022-08-19T10:11:27.406Z,25.20
2022-08-19T10:12:03.018Z,16.50
2022-08-19T10:13:02.614Z,16.50
2022-08-19T10:14:02.476Z,16.50
2022-08-19T10:15:02.975Z,16.50
2022-08-19T10:16:02.849Z,16.50
2022-08-19T10:17:17.506Z,19.50
2022-08-19T10:18:02.771Z,19.50
2022-08-19T10:19:03.675Z,19.50
2022-08-19T10:20:03.344Z,19.50
2022-08-19T10:21:03.242Z,19.50
2022-08-19T10:22:02.915Z,20.20
2022-08-19T10:23:02.769Z,20.20
2022-08-19T10:24:02.978Z,20.20
2022-08-19T10:25:02.673Z,20.20
2022-08-19T10:26:02.790Z,20.20
2022-08-19T10:27:03.545Z,20.80
2022-08-19T10:28:03.113Z,20.80
2022-08-19T10:29:03.610Z,20.80
2022-08-19T10:30:03.354Z,20.80
2022-08-19T10:31:03.225Z,20.80
2022-08-19T10:32:03.242Z,23.90
2022-08-19T10:33:08.527Z,23.90
2022-08-19T10:34:03.176Z,23.90
2022-08-19T10:35:02.776Z,23.90
2022-08-19T10:36:02.837Z,23.90
2022-08-19T10:37:03.101Z,18.30
2022-08-19T10:38:03.864Z,18.30
2022-08-19T10:39:03.726Z,18.30
2022-08-19T10:40:03.665Z,18.30
2022-08-19T10:41:03.168Z,18.30
2022-08-19T10:42:03.314Z,20.80
2022-08-19T10:43:02.728Z,20.80
2022-08-19T10:44:03.998Z,20.80
2022-08-19T10:45:02.600Z,20.80
2022-08-19T10:46:02.787Z,20.80
2022-08-19T10:47:02.801Z,21.70
2022-08-19T10:48:03.319Z,21.70
2022-08-19T10:49:03.034Z,21.70
2022-08-19T10:50:03.535Z,21.70
2022-08-19T10:51:03.098Z,21.70
2022-08-19T10:52:03.131Z,19.40
2022-08-19T10:53:03.384Z,19.40
2022-08-19T10:54:03.858Z,19.40
2022-08-19T10:55:05.256Z,19.40
2022-08-19T10:56:03.527Z,19.40
2022-08-19T10:57:03.676Z,23.10
2022-08-19T10:58:03.209Z,23.10
2022-08-19T10:59:03.168Z,23.10
2022-08-19T11:00:03.272Z,23.10
2022-08-19T11:01:03.599Z,23.10
2022-08-19T11:02:03.463Z,18.50
2022-08-19T11:03:02.656Z,18.50
2022-08-19T11:04:02.815Z,18.50
2022-08-19T11:05:09.068Z,18.50
2022-08-19T11:06:02.606Z,18.50
2022-08-19T11:07:02.837Z,26.50
2022-08-19T11:08:02.953Z,26.50
2022-08-19T11:09:02.753Z,26.50
2022-08-19T11:10:02.907Z,26.50
2022-08-19T11:11:02.481Z,26.50
2022-08-19T11:12:04.737Z,21.20
2022-08-19T11:13:02.275Z,21.20
2022-08-19T11:14:02.413Z,21.20
2022-08-19T11:15:02.312Z,21.20
2022-08-19T11:16:07.094Z,21.20
2022-08-19T11:17:02.743Z,19.60
2022-08-19T11:18:02.697Z,19.60
2022-08-19T11:19:02.886Z,19.60
2022-08-19T11:20:03.068Z,19.60
2022-08-19T11:21:02.603Z,19.60
2022-08-19T11:22:02.557Z,22.80
2022-08-19T11:23:03.550Z,22.80
2022-08-19T11:24:03.382Z,22.80
2022-08-19T11:25:03.575Z,22.80
2022-08-19T11:26:03.403Z,22.80
2022-08-19T11:27:03.234Z,22.60
2022-08-19T11:28:03.025Z,22.60
2022-08-19T11:29:02.872Z,22.60
2022-08-19T11:30:02.979Z,22.60
2022-08-19T11:31:03.065Z,22.60
2022-08-19T11:32:02.829Z,22.10
2022-08-19T11:33:03.807Z,22.10
2022-08-19T11:34:03.689Z,22.10
2022-08-19T11:35:03.668Z,22.10
2022-08-19T11:36:03.502Z,22.10
2022-08-19T11:37:03.637Z,18.80
2022-08-19T11:38:05.457Z,18.80
2022-08-19T11:39:03.703Z,18.80
2022-08-19T11:40:03.960Z,18.80
2022-08-19T11:41:03.276Z,18.80
2022-08-19T11:42:03.502Z,14.40
2022-08-19T11:43:03.301Z,14.40
2022-08-19T11:44:02.969Z,14.40
2022-08-19T11:45:03.270Z,14.40
2022-08-19T11:46:02.974Z,14.40
2022-08-19T11:47:09.069Z,21.70
2022-08-19T11:48:03.140Z,21.70
2022-08-19T11:49:03.407Z,21.70
2022-08-19T11:50:03.272Z,21.70
2022-08-19T11:51:03.473Z,21.70
2022-08-19T11:52:03.305Z,16.10
2022-08-19T11:53:03.198Z,16.10
2022-08-19T11:54:03.071Z,16.10
2022-08-19T11:55:02.574Z,16.10
2022-08-19T11:56:02.698Z,16.10
2022-08-19T11:57:02.786Z,17.20
2022-08-19T11:58:03.619Z,17.20
2022-08-19T11:59:03.182Z,17.20
2022-08-19T12:00:03.243Z,17.20
2022-08-19T12:01:03.544Z,17.20
2022-08-19T12:02:03.177Z,17.40
2022-08-19T12:03:02.885Z,17.40
2022-08-19T12:04:03.093Z,17.40
2022-08-19T12:05:02.848Z,17.40
2022-08-19T12:06:02.834Z,17.40
2022-08-19T12:07:03.066Z,15.40
2022-08-19T12:08:03.130Z,15.40
2022-08-19T12:09:03.028Z,15.40
2022-08-19T12:10:03.621Z,15.40
2022-08-19T12:11:03.636Z,15.40
2022-08-19T12:12:03.471Z,14.90
2022-08-19T12:13:02.752Z,14.90
2022-08-19T12:14:02.892Z,14.90
2022-08-19T12:15:03.145Z,14.90
2022-08-19T12:16:03.303Z,14.90
2022-08-19T12:17:03.229Z,15.40
2022-08-19T12:18:03.087Z,15.40
2022-08-19T12:19:03.278Z,15.40
2022-08-19T12:20:03.564Z,15.40
2022-08-19T12:21:03.652Z,15.40
2022-08-19T12:22:03.155Z,12.70
2022-08-19T12:23:02.449Z,12.70
2022-08-19T12:24:02.769Z,12.70
2022-08-19T12:25:02.823Z,12.70
2022-08-19T12:26:02.334Z,12.70
2022-08-19T12:27:03.147Z,12.60
2022-08-19T12:28:03.020Z,12.60
2022-08-19T12:29:02.692Z,12.60
2022-08-19T12:30:02.735Z,12.60
2022-08-19T12:31:02.732Z,12.60
2022-08-19T12:32:04.091Z,15.10
2022-08-19T12:33:03.307Z,15.10
2022-08-19T12:34:03.430Z,15.10
2022-08-19T12:35:03.019Z,15.10
2022-08-19T12:36:03.123Z,15.10
2022-08-19T12:37:03.350Z,14.30
2022-08-19T12:38:02.982Z,14.30
2022-08-19T12:39:02.831Z,14.30
2022-08-19T12:40:02.730Z,14.30
2022-08-19T12:41:02.876Z,14.30
2022-08-19T12:42:02.987Z,12.60
2022-08-19T12:43:03.098Z,12.60
2022-08-19T12:44:03.210Z,12.60
2022-08-19T12:45:03.369Z,12.60
2022-08-19T12:46:03.303Z,12.60
2022-08-19T12:47:03.188Z,15.00
2022-08-19T12:48:03.607Z,15.00
2022-08-19T12:49:05.134Z,15.00
2022-08-19T12:50:06.929Z,15.00
2022-08-19T12:51:03.543Z,15.00
2022-08-19T12:52:03.837Z,14.60
2022-08-19T12:53:03.188Z,14.60
2022-08-19T12:54:03.117Z,14.60